sensor_id;sensor_type;location;lat;lon;timestamp;pressure;altitude;pressure_sealevel;temperature;humidity
2268;BME280;11052;43.338;25.502;2022-11-20T00:01:11;100003.16;;;10.40;100.00
2268;BME280;11052;43.338;25.502;2022-11-20T00:03:39;99989.41;;;10.38;100.00
2268;BME280;11052;43.338;25.502;2022-11-20T00:06:09;99991.41;;;10.30;100.00
2268;BME280;11052;43.338;25.502;2022-11-20T00:08:37;100003.94;;;10.15;100.00
2268;BME280;11052;43.338;25.502;2022-11-20T00:11:05;99999.66;;;10.14;100.00
2268;BME280;11052;43.338;25.502;2022-11-20T00:13:32;99999.66;;;10.14;100.00
2268;BME280;11052;43.338;25.502;2022-11-20T00:16:00;100010.06;;;10.13;100.00
2268;BME280;11052;43.338;25.502;2022-11-20T00:18:28;100000.41;;;10.20;100.00
2268;BME280;11052;43.338;25.502;2022-11-20T00:21:00;100005.66;;;10.16;100.00
2268;BME280;11052;43.338;25.502;2022-11-20T00:23:29;100004.78;;;10.16;100.00
2268;BME280;11052;43.338;25.502;2022-11-20T00:26:00;100011.78;;;10.14;100.00
2268;BME280;11052;43.338;25.502;2022-11-20T00:28:27;99999.06;;;10.06;100.00
2268;BME280;11052;43.338;25.502;2022-11-20T00:31:00;99997.44;;;10.04;100.00
2268;BME280;11052;43.338;25.502;2022-11-20T00:33:27;99992.09;;;10.08;100.00
2268;BME280;11052;43.338;25.502;2022-11-20T00:35:59;99978.41;;;10.05;100.00
2268;BME280;11052;43.338;25.502;2022-11-20T00:38:26;99974.13;;;10.04;100.00
2268;BME280;11052;43.338;25.502;2022-11-20T00:40:57;99969.09;;;9.99;100.00
2268;BME280;11052;43.338;25.502;2022-11-20T00:43:24;99979.59;;;9.95;100.00
2268;BME280;11052;43.338;25.502;2022-11-20T00:45:56;99977.06;;;9.93;100.00
2268;BME280;11052;43.338;25.502;2022-11-20T00:48:23;99983.00;;;9.97;100.00
2268;BME280;11052;43.338;25.502;2022-11-20T00:50:50;99971.69;;;9.99;100.00
2268;BME280;11052;43.338;25.502;2022-11-20T00:53:18;99972.38;;;10.04;100.00
2268;BME280;11052;43.338;25.502;2022-11-20T00:55:53;99977.56;;;10.04;100.00
2268;BME280;11052;43.338;25.502;2022-11-20T00:58:23;99973.44;;;9.99;100.00
2268;BME280;11052;43.338;25.502;2022-11-20T01:00:50;99972.53;;;10.00;100.00
2268;BME280;11052;43.338;25.502;2022-11-20T01:03:18;99966.41;;;10.02;100.00
2268;BME280;11052;43.338;25.502;2022-11-20T01:05:45;99967.16;;;10.06;100.00
2268;BME280;11052;43.338;25.502;2022-11-20T01:08:12;99950.97;;;9.99;100.00
2268;BME280;11052;43.338;25.502;2022-11-20T01:10:39;99948.47;;;9.96;100.00
2268;BME280;11052;43.338;25.502;2022-11-20T01:13:06;99952.91;;;9.93;100.00
2268;BME280;11052;43.338;25.502;2022-11-20T01:15:51;99944.00;;;10.01;100.00
2268;BME280;11052;43.338;25.502;2022-11-20T01:18:19;99951.38;;;9.87;100.00
2268;BME280;11052;43.338;25.502;2022-11-20T01:20:46;99938.72;;;9.78;100.00
2268;BME280;11052;43.338;25.502;2022-11-20T01:23:13;99927.38;;;9.82;100.00
2268;BME280;11052;43.338;25.502;2022-11-20T01:25:40;99942.72;;;9.88;100.00
2268;BME280;11052;43.338;25.502;2022-11-20T01:28:07;99929.66;;;9.91;100.00
2268;BME280;11052;43.338;25.502;2022-11-20T01:30:34;99931.34;;;9.92;100.00
2268;BME280;11052;43.338;25.502;2022-11-20T01:33:02;99933.09;;;9.92;100.00
2268;BME280;11052;43.338;25.502;2022-11-20T01:35:30;99929.63;;;9.93;100.00
2268;BME280;11052;43.338;25.502;2022-11-20T01:37:57;99922.69;;;9.93;100.00
2268;BME280;11052;43.338;25.502;2022-11-20T01:40:24;99925.28;;;9.93;100.00
2268;BME280;11052;43.338;25.502;2022-11-20T01:42:57;99924.22;;;9.99;100.00
2268;BME280;11052;43.338;25.502;2022-11-20T01:46:14;99916.13;;;9.83;100.00
2268;BME280;11052;43.338;25.502;2022-11-20T01:48:48;99918.41;;;9.92;100.00
2268;BME280;11052;43.338;25.502;2022-11-20T01:51:25;99906.66;;;9.82;100.00
2268;BME280;11052;43.338;25.502;2022-11-20T01:53:54;99911.59;;;9.90;100.00
2268;BME280;11052;43.338;25.502;2022-11-20T01:56:22;99908.06;;;9.92;100.00
2268;BME280;11052;43.338;25.502;2022-11-20T01:58:53;99915.41;;;10.04;100.00
2268;BME280;11052;43.338;25.502;2022-11-20T02:01:21;99917.91;;;10.07;100.00
2268;BME280;11052;43.338;25.502;2022-11-20T02:03:50;99921.91;;;10.16;100.00
2268;BME280;11052;43.338;25.502;2022-11-20T02:06:22;99922.81;;;10.15;100.00
2268;BME280;11052;43.338;25.502;2022-11-20T02:08:51;99914.03;;;10.21;100.00
2268;BME280;11052;43.338;25.502;2022-11-20T02:11:18;99906.28;;;10.19;100.00
2268;BME280;11052;43.338;25.502;2022-11-20T02:13:46;99916.56;;;10.22;100.00
2268;BME280;11052;43.338;25.502;2022-11-20T02:16:15;99907.03;;;10.23;100.00
2268;BME280;11052;43.338;25.502;2022-11-20T02:18:44;99902.59;;;10.26;100.00
2268;BME280;11052;43.338;25.502;2022-11-20T02:21:24;99903.44;;;10.27;100.00
2268;BME280;11052;43.338;25.502;2022-11-20T02:24:06;99897.09;;;10.35;100.00
2268;BME280;11052;43.338;25.502;2022-11-20T02:26:39;99893.78;;;10.32;100.00
2268;BME280;11052;43.338;25.502;2022-11-20T02:29:07;99888.59;;;10.32;100.00
2268;BME280;11052;43.338;25.502;2022-11-20T02:31:40;99890.38;;;10.30;100.00
2268;BME280;11052;43.338;25.502;2022-11-20T02:34:08;99888.69;;;10.29;100.00
2268;BME280;11052;43.338;25.502;2022-11-20T02:36:35;99881.03;;;10.26;100.00
2268;BME280;11052;43.338;25.502;2022-11-20T02:39:06;99877.75;;;10.21;100.00
2268;BME280;11052;43.338;25.502;2022-11-20T02:41:35;99869.28;;;10.15;100.00
2268;BME280;11052;43.338;25.502;2022-11-20T02:44:03;99858.06;;;10.15;100.00
2268;BME280;11052;43.338;25.502;2022-11-20T02:46:31;99861.38;;;10.20;100.00
2268;BME280;11052;43.338;25.502;2022-11-20T02:48:59;99843.19;;;10.22;100.00
2268;BME280;11052;43.338;25.502;2022-11-20T02:51:26;99838.25;;;10.14;100.00
2268;BME280;11052;43.338;25.502;2022-11-20T02:53:54;99833.84;;;10.16;100.00
2268;BME280;11052;43.338;25.502;2022-11-20T02:56:22;99825.28;;;10.14;100.00
2268;BME280;11052;43.338;25.502;2022-11-20T02:58:50;99830.91;;;10.02;100.00
2268;BME280;11052;43.338;25.502;2022-11-20T03:01:17;99831.59;;;10.07;100.00
2268;BME280;11052;43.338;25.502;2022-11-20T03:03:44;99822.66;;;9.91;100.00
2268;BME280;11052;43.338;25.502;2022-11-20T03:06:11;99825.47;;;9.84;100.00
2268;BME280;11052;43.338;25.502;2022-11-20T03:08:38;99822.03;;;9.84;100.00
2268;BME280;11052;43.338;25.502;2022-11-20T03:11:06;99820.44;;;9.80;100.00
2268;BME280;11052;43.338;25.502;2022-11-20T03:13:35;99822.88;;;9.84;100.00
2268;BME280;11052;43.338;25.502;2022-11-20T03:16:10;99815.31;;;9.78;100.00
2268;BME280;11052;43.338;25.502;2022-11-20T03:18:37;99813.41;;;9.83;100.00
2268;BME280;11052;43.338;25.502;2022-11-20T03:21:05;99815.28;;;9.80;100.00
2268;BME280;11052;43.338;25.502;2022-11-20T03:23:32;99820.72;;;9.97;100.00
2268;BME280;11052;43.338;25.502;2022-11-20T03:26:14;99814.38;;;10.06;100.00
2268;BME280;11052;43.338;25.502;2022-11-20T03:28:46;99822.34;;;10.00;100.00
2268;BME280;11052;43.338;25.502;2022-11-20T03:31:15;99827.41;;;10.03;100.00
2268;BME280;11052;43.338;25.502;2022-11-20T03:33:42;99822.88;;;10.09;100.00
2268;BME280;11052;43.338;25.502;2022-11-20T03:36:13;99823.44;;;10.17;100.00
2268;BME280;11052;43.338;25.502;2022-11-20T03:38:41;99820.06;;;10.15;100.00
2268;BME280;11052;43.338;25.502;2022-11-20T03:41:10;99821.50;;;10.24;100.00
2268;BME280;11052;43.338;25.502;2022-11-20T03:43:37;99832.69;;;10.48;100.00
2268;BME280;11052;43.338;25.502;2022-11-20T03:46:06;99832.69;;;10.93;100.00
2268;BME280;11052;43.338;25.502;2022-11-20T03:48:34;99827.03;;;11.05;100.00
2268;BME280;11052;43.338;25.502;2022-11-20T03:51:11;99828.22;;;11.19;100.00
2268;BME280;11052;43.338;25.502;2022-11-20T03:53:39;99829.09;;;11.39;100.00
2268;BME280;11052;43.338;25.502;2022-11-20T03:56:07;99826.31;;;11.44;100.00
2268;BME280;11052;43.338;25.502;2022-11-20T03:58:34;99832.75;;;11.56;100.00
2268;BME280;11052;43.338;25.502;2022-11-20T04:01:08;99842.97;;;11.80;100.00
2268;BME280;11052;43.338;25.502;2022-11-20T04:03:37;99844.78;;;11.99;100.00
2268;BME280;11052;43.338;25.502;2022-11-20T04:06:05;99853.31;;;12.02;100.00
2268;BME280;11052;43.338;25.502;2022-11-20T04:08:33;99858.72;;;12.17;100.00
2268;BME280;11052;43.338;25.502;2022-11-20T04:11:11;99846.13;;;12.65;100.00
2268;BME280;11052;43.338;25.502;2022-11-20T04:13:39;99865.88;;;12.88;100.00
2268;BME280;11052;43.338;25.502;2022-11-20T04:16:09;99861.34;;;13.10;100.00
2268;BME280;11052;43.338;25.502;2022-11-20T04:18:36;99863.53;;;13.01;100.00
2268;BME280;11052;43.338;25.502;2022-11-20T04:21:04;99858.22;;;12.85;100.00
2268;BME280;11052;43.338;25.502;2022-11-20T04:23:31;99873.19;;;12.99;100.00
2268;BME280;11052;43.338;25.502;2022-11-20T04:26:01;99873.34;;;12.96;100.00
2268;BME280;11052;43.338;25.502;2022-11-20T04:28:28;99894.72;;;12.44;100.00
2268;BME280;11052;43.338;25.502;2022-11-20T04:31:02;99901.50;;;12.09;100.00
2268;BME280;11052;43.338;25.502;2022-11-20T04:33:31;99901.56;;;11.66;100.00
2268;BME280;11052;43.338;25.502;2022-11-20T04:36:01;99925.59;;;11.27;100.00
2268;BME280;11052;43.338;25.502;2022-11-20T04:38:28;99939.50;;;11.26;100.00
2268;BME280;11052;43.338;25.502;2022-11-20T04:40:57;99942.97;;;11.03;100.00
2268;BME280;11052;43.338;25.502;2022-11-20T04:43:25;99955.69;;;10.86;100.00
2268;BME280;11052;43.338;25.502;2022-11-20T04:45:52;99965.66;;;10.73;100.00
2268;BME280;11052;43.338;25.502;2022-11-20T04:48:19;99969.16;;;10.72;100.00
2268;BME280;11052;43.338;25.502;2022-11-20T04:50:48;99983.13;;;10.68;100.00
2268;BME280;11052;43.338;25.502;2022-11-20T04:53:15;99988.38;;;10.67;100.00
2268;BME280;11052;43.338;25.502;2022-11-20T04:55:42;99998.16;;;10.59;100.00
2268;BME280;11052;43.338;25.502;2022-11-20T04:58:09;100005.25;;;10.54;100.00
2268;BME280;11052;43.338;25.502;2022-11-20T05:00:37;99995.56;;;10.59;100.00
2268;BME280;11052;43.338;25.502;2022-11-20T05:03:04;100011.75;;;10.65;100.00
2268;BME280;11052;43.338;25.502;2022-11-20T05:05:31;100021.22;;;10.66;100.00
2268;BME280;11052;43.338;25.502;2022-11-20T05:07:59;100031.66;;;10.65;100.00
2268;BME280;11052;43.338;25.502;2022-11-20T05:10:27;100042.75;;;10.68;100.00
2268;BME280;11052;43.338;25.502;2022-11-20T05:12:54;100033.06;;;10.73;100.00
2268;BME280;11052;43.338;25.502;2022-11-20T05:15:21;100047.16;;;10.66;100.00
2268;BME280;11052;43.338;25.502;2022-11-20T05:17:48;100039.38;;;10.66;100.00
2268;BME280;11052;43.338;25.502;2022-11-20T05:20:16;100043.97;;;10.58;100.00
2268;BME280;11052;43.338;25.502;2022-11-20T05:22:43;100048.78;;;10.44;100.00
2268;BME280;11052;43.338;25.502;2022-11-20T05:25:12;100037.31;;;10.26;100.00
2268;BME280;11052;43.338;25.502;2022-11-20T05:27:39;100038.16;;;10.27;100.00
2268;BME280;11052;43.338;25.502;2022-11-20T05:30:07;100029.84;;;10.15;100.00
2268;BME280;11052;43.338;25.502;2022-11-20T05:32:35;100037.66;;;10.14;100.00
2268;BME280;11052;43.338;25.502;2022-11-20T05:35:02;100053.91;;;10.19;100.00
2268;BME280;11052;43.338;25.502;2022-11-20T05:37:29;100056.69;;;10.13;100.00
2268;BME280;11052;43.338;25.502;2022-11-20T05:39:56;100068.59;;;10.20;100.00
2268;BME280;11052;43.338;25.502;2022-11-20T05:42:24;100070.28;;;10.21;100.00
2268;BME280;11052;43.338;25.502;2022-11-20T05:44:58;100071.78;;;10.28;100.00
2268;BME280;11052;43.338;25.502;2022-11-20T05:47:25;100059.72;;;10.27;100.00
2268;BME280;11052;43.338;25.502;2022-11-20T05:49:53;100054.19;;;10.38;100.00
2268;BME280;11052;43.338;25.502;2022-11-20T05:52:20;100070.41;;;10.43;100.00
2268;BME280;11052;43.338;25.502;2022-11-20T05:54:47;100092.63;;;10.50;100.00
2268;BME280;11052;43.338;25.502;2022-11-20T05:57:14;100105.34;;;10.58;100.00
2268;BME280;11052;43.338;25.502;2022-11-20T05:59:43;100099.50;;;10.51;100.00
2268;BME280;11052;43.338;25.502;2022-11-20T06:02:10;100122.81;;;10.51;100.00
2268;BME280;11052;43.338;25.502;2022-11-20T06:04:38;100124.41;;;10.55;100.00
2268;BME280;11052;43.338;25.502;2022-11-20T06:07:05;100116.78;;;10.50;100.00
2268;BME280;11052;43.338;25.502;2022-11-20T06:09:32;100131.94;;;10.63;100.00
2268;BME280;11052;43.338;25.502;2022-11-20T06:11:59;100124.81;;;10.69;100.00
2268;BME280;11052;43.338;25.502;2022-11-20T06:14:27;100135.44;;;10.62;100.00
2268;BME280;11052;43.338;25.502;2022-11-20T06:16:55;100145.09;;;10.57;100.00
2268;BME280;11052;43.338;25.502;2022-11-20T06:19:22;100141.88;;;10.50;100.00
2268;BME280;11052;43.338;25.502;2022-11-20T06:21:49;100129.06;;;10.45;100.00
2268;BME280;11052;43.338;25.502;2022-11-20T06:24:17;100135.84;;;10.49;100.00
2268;BME280;11052;43.338;25.502;2022-11-20T06:26:44;100154.81;;;10.50;100.00
2268;BME280;11052;43.338;25.502;2022-11-20T06:29:11;100169.63;;;10.46;100.00
2268;BME280;11052;43.338;25.502;2022-11-20T06:31:38;100184.03;;;10.55;100.00
2268;BME280;11052;43.338;25.502;2022-11-20T06:34:07;100195.44;;;10.49;100.00
2268;BME280;11052;43.338;25.502;2022-11-20T06:36:35;100187.81;;;10.45;100.00
2268;BME280;11052;43.338;25.502;2022-11-20T06:39:02;100187.53;;;10.54;100.00
2268;BME280;11052;43.338;25.502;2022-11-20T06:41:29;100201.56;;;10.47;100.00
2268;BME280;11052;43.338;25.502;2022-11-20T06:43:56;100220.31;;;10.55;100.00
2268;BME280;11052;43.338;25.502;2022-11-20T06:46:23;100222.97;;;10.54;100.00
2268;BME280;11052;43.338;25.502;2022-11-20T06:48:50;100223.25;;;10.44;100.00
2268;BME280;11052;43.338;25.502;2022-11-20T06:51:19;100219.84;;;10.42;100.00
2268;BME280;11052;43.338;25.502;2022-11-20T06:53:47;100234.94;;;10.30;100.00
2268;BME280;11052;43.338;25.502;2022-11-20T06:56:14;100239.41;;;10.25;100.00
2268;BME280;11052;43.338;25.502;2022-11-20T06:58:41;100239.41;;;10.25;100.00
2268;BME280;11052;43.338;25.502;2022-11-20T07:01:10;100245.97;;;10.36;100.00
2268;BME280;11052;43.338;25.502;2022-11-20T07:03:38;100239.69;;;10.14;100.00
2268;BME280;11052;43.338;25.502;2022-11-20T07:06:06;100238.53;;;9.95;100.00
2268;BME280;11052;43.338;25.502;2022-11-20T07:08:35;100247.28;;;9.91;100.00
2268;BME280;11052;43.338;25.502;2022-11-20T07:11:04;100260.09;;;9.95;100.00
2268;BME280;11052;43.338;25.502;2022-11-20T07:13:32;100268.75;;;9.94;100.00
2268;BME280;11052;43.338;25.502;2022-11-20T07:16:00;100278.59;;;9.81;100.00
2268;BME280;11052;43.338;25.502;2022-11-20T07:18:28;100300.69;;;9.62;100.00
2268;BME280;11052;43.338;25.502;2022-11-20T07:20:55;100312.78;;;9.62;100.00
2268;BME280;11052;43.338;25.502;2022-11-20T07:23:22;100309.53;;;9.53;100.00
2268;BME280;11052;43.338;25.502;2022-11-20T07:25:50;100307.88;;;9.52;100.00
2268;BME280;11052;43.338;25.502;2022-11-20T07:28:17;100301.53;;;9.63;100.00
2268;BME280;11052;43.338;25.502;2022-11-20T07:30:50;100309.53;;;9.53;100.00
2268;BME280;11052;43.338;25.502;2022-11-20T07:33:17;100320.81;;;9.52;100.00
2268;BME280;11052;43.338;25.502;2022-11-20T07:35:44;100310.22;;;9.60;100.00
2268;BME280;11052;43.338;25.502;2022-11-20T07:38:11;100314.19;;;9.73;100.00
2268;BME280;11052;43.338;25.502;2022-11-20T07:40:39;100308.16;;;9.73;100.00
2268;BME280;11052;43.338;25.502;2022-11-20T07:43:07;100289.13;;;9.75;100.00
2268;BME280;11052;43.338;25.502;2022-11-20T07:45:34;100289.50;;;9.93;100.00
2268;BME280;11052;43.338;25.502;2022-11-20T07:48:01;100289.50;;;9.93;100.00
2268;BME280;11052;43.338;25.502;2022-11-20T07:50:28;100283.28;;;10.00;100.00
2268;BME280;11052;43.338;25.502;2022-11-20T07:53:01;100287.81;;;9.92;100.00
2268;BME280;11052;43.338;25.502;2022-11-20T07:55:29;100287.00;;;9.90;100.00
2268;BME280;11052;43.338;25.502;2022-11-20T07:57:56;100280.22;;;9.85;100.00
2268;BME280;11052;43.338;25.502;2022-11-20T08:00:26;100276.00;;;9.81;100.00
2268;BME280;11052;43.338;25.502;2022-11-20T08:02:53;100277.09;;;9.73;100.00
2268;BME280;11052;43.338;25.502;2022-11-20T08:05:20;100292.47;;;9.79;100.00
2268;BME280;11052;43.338;25.502;2022-11-20T08:07:47;100294.34;;;9.74;100.00
2268;BME280;11052;43.338;25.502;2022-11-20T08:10:15;100291.16;;;9.95;100.00
2268;BME280;11052;43.338;25.502;2022-11-20T08:12:45;100277.50;;;9.90;100.00
2268;BME280;11052;43.338;25.502;2022-11-20T08:15:32;100264.00;;;9.79;100.00
2268;BME280;11052;43.338;25.502;2022-11-20T08:18:01;100254.81;;;9.67;100.00
2268;BME280;11052;43.338;25.502;2022-11-20T08:20:28;100254.88;;;9.66;100.00
2268;BME280;11052;43.338;25.502;2022-11-20T08:22:58;100255.75;;;9.65;100.00
2268;BME280;11052;43.338;25.502;2022-11-20T08:25:26;100258.09;;;9.74;100.00
2268;BME280;11052;43.338;25.502;2022-11-20T08:27:53;100262.91;;;9.88;100.00
2268;BME280;11052;43.338;25.502;2022-11-20T08:30:20;100265.09;;;10.01;100.00
2268;BME280;11052;43.338;25.502;2022-11-20T08:32:49;100285.47;;;10.13;100.00
2268;BME280;11052;43.338;25.502;2022-11-20T08:35:16;100277.38;;;10.26;100.00
2268;BME280;11052;43.338;25.502;2022-11-20T08:37:46;100282.38;;;10.32;100.00
2268;BME280;11052;43.338;25.502;2022-11-20T08:40:13;100279.38;;;10.45;100.00
2268;BME280;11052;43.338;25.502;2022-11-20T08:42:46;100282.81;;;10.46;100.00
2268;BME280;11052;43.338;25.502;2022-11-20T08:45:14;100288.28;;;10.37;100.00
2268;BME280;11052;43.338;25.502;2022-11-20T08:47:41;100275.34;;;10.37;100.00
2268;BME280;11052;43.338;25.502;2022-11-20T08:50:10;100258.22;;;10.31;100.00
2268;BME280;11052;43.338;25.502;2022-11-20T08:52:38;100258.22;;;10.31;100.00
2268;BME280;11052;43.338;25.502;2022-11-20T08:55:06;100270.38;;;10.29;100.00
2268;BME280;11052;43.338;25.502;2022-11-20T08:57:34;100268.34;;;10.39;100.00
2268;BME280;11052;43.338;25.502;2022-11-20T09:00:02;100279.22;;;10.50;100.00
2268;BME280;11052;43.338;25.502;2022-11-20T09:02:29;100267.59;;;10.63;100.00
2268;BME280;11052;43.338;25.502;2022-11-20T09:04:57;100261.69;;;10.58;100.00
2268;BME280;11052;43.338;25.502;2022-11-20T09:07:26;100256.22;;;10.67;100.00
2268;BME280;11052;43.338;25.502;2022-11-20T09:09:53;100258.50;;;10.78;100.00
2268;BME280;11052;43.338;25.502;2022-11-20T09:12:20;100273.28;;;10.74;100.00
2268;BME280;11052;43.338;25.502;2022-11-20T09:14:47;100246.38;;;10.78;100.00
2268;BME280;11052;43.338;25.502;2022-11-20T09:17:14;100236.53;;;10.62;100.00
2268;BME280;11052;43.338;25.502;2022-11-20T09:19:41;100236.53;;;10.62;100.00
2268;BME280;11052;43.338;25.502;2022-11-20T09:22:08;100242.19;;;10.74;100.00
2268;BME280;11052;43.338;25.502;2022-11-20T09:24:37;100250.41;;;10.87;100.00
2268;BME280;11052;43.338;25.502;2022-11-20T09:27:04;100237.34;;;10.90;100.00
2268;BME280;11052;43.338;25.502;2022-11-20T09:29:32;100241.00;;;10.84;100.00
2268;BME280;11052;43.338;25.502;2022-11-20T09:31:59;100241.03;;;10.83;100.00
2268;BME280;11052;43.338;25.502;2022-11-20T09:34:26;100236.06;;;10.77;100.00
2268;BME280;11052;43.338;25.502;2022-11-20T09:36:53;100241.94;;;10.82;100.00
2268;BME280;11052;43.338;25.502;2022-11-20T09:39:20;100227.22;;;10.82;100.00
2268;BME280;11052;43.338;25.502;2022-11-20T09:42:00;100216.25;;;10.74;100.00
2268;BME280;11052;43.338;25.502;2022-11-20T09:44:40;100223.34;;;10.69;100.00
2268;BME280;11052;43.338;25.502;2022-11-20T09:47:16;100209.66;;;10.64;100.00
2268;BME280;11052;43.338;25.502;2022-11-20T09:50:00;100193.34;;;10.61;100.00
2268;BME280;11052;43.338;25.502;2022-11-20T09:52:39;100198.31;;;10.68;100.00
2268;BME280;11052;43.338;25.502;2022-11-20T09:55:12;100207.53;;;10.77;100.00
2268;BME280;11052;43.338;25.502;2022-11-20T09:57:45;100210.38;;;10.69;100.00
2268;BME280;11052;43.338;25.502;2022-11-20T10:00:14;100200.25;;;10.62;100.00
2268;BME280;11052;43.338;25.502;2022-11-20T10:02:44;100197.41;;;10.69;100.00
2268;BME280;11052;43.338;25.502;2022-11-20T10:05:18;100201.78;;;10.67;100.00
2268;BME280;11052;43.338;25.502;2022-11-20T10:08:07;100195.94;;;10.61;100.00
2268;BME280;11052;43.338;25.502;2022-11-20T10:10:40;100198.09;;;10.74;100.00
2268;BME280;11052;43.338;25.502;2022-11-20T10:13:20;100197.31;;;10.72;100.00
2268;BME280;11052;43.338;25.502;2022-11-20T10:16:05;100203.09;;;10.80;100.00
2268;BME280;11052;43.338;25.502;2022-11-20T10:18:46;100199.94;;;10.71;100.00
2268;BME280;11052;43.338;25.502;2022-11-20T10:21:23;100193.72;;;10.76;100.00
2268;BME280;11052;43.338;25.502;2022-11-20T10:24:05;100184.75;;;10.87;100.00
2268;BME280;11052;43.338;25.502;2022-11-20T10:26:43;100182.75;;;10.95;100.00
2268;BME280;11052;43.338;25.502;2022-11-20T10:29:16;100178.50;;;10.92;100.00
2268;BME280;11052;43.338;25.502;2022-11-20T10:31:46;100164.09;;;10.83;100.00
2268;BME280;11052;43.338;25.502;2022-11-20T10:34:20;100172.69;;;10.86;100.00
2268;BME280;11052;43.338;25.502;2022-11-20T10:36:54;100172.47;;;10.92;100.00
2268;BME280;11052;43.338;25.502;2022-11-20T10:39:28;100158.44;;;10.97;100.00
2268;BME280;11052;43.338;25.502;2022-11-20T10:41:59;100158.88;;;11.10;100.00
2268;BME280;11052;43.338;25.502;2022-11-20T10:44:29;100158.63;;;11.18;100.00
2268;BME280;11052;43.338;25.502;2022-11-20T10:47:15;100155.97;;;11.19;100.00
2268;BME280;11052;43.338;25.502;2022-11-20T10:49:43;100159.84;;;11.31;100.00
2268;BME280;11052;43.338;25.502;2022-11-20T10:52:19;100167.25;;;11.41;100.00
2268;BME280;11052;43.338;25.502;2022-11-20T10:54:54;100165.03;;;11.56;100.00
2268;BME280;11052;43.338;25.502;2022-11-20T10:57:34;100173.59;;;11.58;100.00
2268;BME280;11052;43.338;25.502;2022-11-20T11:00:09;100172.13;;;11.50;100.00
2268;BME280;11052;43.338;25.502;2022-11-20T11:02:41;100164.28;;;11.52;100.00
2268;BME280;11052;43.338;25.502;2022-11-20T11:05:33;100168.41;;;11.58;100.00
2268;BME280;11052;43.338;25.502;2022-11-20T11:08:04;100178.63;;;11.62;100.00
2268;BME280;11052;43.338;25.502;2022-11-20T11:10:37;100184.22;;;11.75;100.00
2268;BME280;11052;43.338;25.502;2022-11-20T11:13:07;100174.75;;;11.74;100.00
2268;BME280;11052;43.338;25.502;2022-11-20T11:15:47;100174.13;;;11.67;100.00
2268;BME280;11052;43.338;25.502;2022-11-20T11:18:23;100170.66;;;11.67;100.00
2268;BME280;11052;43.338;25.502;2022-11-20T11:20:52;100175.81;;;11.68;100.00
2268;BME280;11052;43.338;25.502;2022-11-20T11:23:34;100169.59;;;11.72;100.00
2268;BME280;11052;43.338;25.502;2022-11-20T11:26:05;100170.44;;;11.73;100.00
2268;BME280;11052;43.338;25.502;2022-11-20T11:28:33;100169.25;;;11.83;100.00
2268;BME280;11052;43.338;25.502;2022-11-20T11:31:01;100172.50;;;11.88;100.00
2268;BME280;11052;43.338;25.502;2022-11-20T11:33:30;100175.91;;;11.90;100.00
2268;BME280;11052;43.338;25.502;2022-11-20T11:36:00;100172.16;;;11.97;100.00
2268;BME280;11052;43.338;25.502;2022-11-20T11:38:32;100179.06;;;11.98;100.00
2268;BME280;11052;43.338;25.502;2022-11-20T11:41:02;100192.72;;;12.03;100.00
2268;BME280;11052;43.338;25.502;2022-11-20T11:43:33;100191.03;;;12.02;100.00
2268;BME280;11052;43.338;25.502;2022-11-20T11:46:31;100203.69;;;11.88;100.00
2268;BME280;11052;43.338;25.502;2022-11-20T11:49:00;100217.28;;;11.95;100.00
2268;BME280;11052;43.338;25.502;2022-11-20T11:51:32;100232.03;;;11.94;100.00
2268;BME280;11052;43.338;25.502;2022-11-20T11:54:04;100239.09;;;11.91;100.00
2268;BME280;11052;43.338;25.502;2022-11-20T11:56:36;100248.28;;;11.74;100.00
2268;BME280;11052;43.338;25.502;2022-11-20T11:59:10;100247.09;;;11.60;100.00
2268;BME280;11052;43.338;25.502;2022-11-20T12:01:43;100234.09;;;11.60;100.00
2268;BME280;11052;43.338;25.502;2022-11-20T12:04:19;100229.34;;;11.47;100.00
2268;BME280;11052;43.338;25.502;2022-11-20T12:06:51;100217.41;;;11.42;100.00
2268;BME280;11052;43.338;25.502;2022-11-20T12:09:24;100211.13;;;11.49;100.00
2268;BME280;11052;43.338;25.502;2022-11-20T12:11:56;100214.72;;;11.45;100.00
2268;BME280;11052;43.338;25.502;2022-11-20T12:14:33;100215.47;;;11.48;100.00
2268;BME280;11052;43.338;25.502;2022-11-20T12:17:03;100209.59;;;11.43;100.00
2268;BME280;11052;43.338;25.502;2022-11-20T12:19:31;100200.47;;;11.32;100.00
2268;BME280;11052;43.338;25.502;2022-11-20T12:22:04;100201.31;;;11.32;100.00
2268;BME280;11052;43.338;25.502;2022-11-20T12:24:39;100199.53;;;11.34;100.00
2268;BME280;11052;43.338;25.502;2022-11-20T12:27:36;100194.84;;;11.44;100.00
2268;BME280;11052;43.338;25.502;2022-11-20T12:30:09;100180.56;;;11.32;100.00
2268;BME280;11052;43.338;25.502;2022-11-20T12:35:58;100159.19;;;11.26;100.00
2268;BME280;11052;43.338;25.502;2022-11-20T12:39:01;100147.72;;;11.31;100.00
2268;BME280;11052;43.338;25.502;2022-11-20T12:41:43;100167.25;;;11.41;100.00
2268;BME280;11052;43.338;25.502;2022-11-20T12:44:44;100181.72;;;11.48;100.00
2268;BME280;11052;43.338;25.502;2022-11-20T12:47:39;100183.25;;;11.54;100.00
2268;BME280;11052;43.338;25.502;2022-11-20T12:50:16;100167.88;;;11.48;100.00
2268;BME280;11052;43.338;25.502;2022-11-20T12:52:48;100157.00;;;11.38;100.00
2268;BME280;11052;43.338;25.502;2022-11-20T12:55:25;100153.53;;;11.38;100.00
2268;BME280;11052;43.338;25.502;2022-11-20T12:57:58;100161.16;;;11.42;100.00
2268;BME280;11052;43.338;25.502;2022-11-20T13:00:31;100181.13;;;11.40;100.00
2268;BME280;11052;43.338;25.502;2022-11-20T13:03:09;100175.16;;;11.38;100.00
2268;BME280;11052;43.338;25.502;2022-11-20T13:05:51;100146.56;;;11.40;100.00